This is the latest recevied weather packets stored in our database for station/object EA6MI-10. If no packets are shown the sender has not sent any weather packets the latest 10 day(s).
| Time | Temp. | Humidity | Pressure | Rain* | Wind** | Luminosity | Snow |
|---|---|---|---|---|---|---|---|
| 1777794873 | 18.89° C | 57% | 1009.8 hPa | - | - | - | - |
| 1777793973 | 19.44° C | 49% | 1009.2 hPa | - | - | - | - |
| 1777793073 | 19.44° C | 48% | 1008.6 hPa | - | - | - | - |
| 1777792173 | 19.44° C | 47% | 1008.8 hPa | - | - | - | - |
| 1777791273 | 19.44° C | 47% | 1009 hPa | - | - | - | - |
| 1777790373 | 19.44° C | 47% | 1009.1 hPa | - | - | - | - |
| 1777789473 | 19.44° C | 46% | 1009.3 hPa | - | - | - | - |
| 1777788573 | 19.44° C | 46% | 1009 hPa | - | - | - | - |
| 1777787672 | 19.44° C | 45% | 1009.1 hPa | - | - | - | - |
| 1777786772 | 19.44° C | 44% | 1009.4 hPa | - | - | - | - |
| 1777785872 | 19.44° C | 44% | 1009.4 hPa | - | - | - | - |
| 1777784972 | 19.44° C | 43% | 1009.7 hPa | - | - | - | - |
| 1777784072 | 20° C | 43% | 1009.4 hPa | - | - | - | - |
| 1777783172 | 20° C | 42% | 1009.4 hPa | - | - | - | - |
| 1777782271 | 18.89° C | 42% | 1007.6 hPa | - | - | - | - |
| 1777781371 | 20° C | 42% | 1009.5 hPa | - | - | - | - |
| 1777780471 | 20° C | 41% | 1009.3 hPa | - | - | - | - |
| 1777779571 | 20° C | 40% | 1009.4 hPa | - | - | - | - |
| 1777778671 | 20.56° C | 40% | 1009.5 hPa | - | - | - | - |
| 1777777771 | 20.56° C | 41% | 1009.6 hPa | - | - | - | - |
| 1777776871 | 20° C | 41% | 1009.1 hPa | - | - | - | - |
| 1777775970 | 20.56° C | 41% | 1010.1 hPa | - | - | - | - |
| 1777775069 | 20.56° C | 41% | 1009.9 hPa | - | - | - | - |
| 1777774169 | 20.56° C | 41% | 1010.3 hPa | - | - | - | - |
| 1777773269 | 20.56° C | 41% | 1010.3 hPa | - | - | - | - |
* Rain since midnight (hover to see other rain measurements)
** Current wind speed in m/s (hover to see current wind gust speed)